Time;durP1;ratioP1;P1;durP2;ratioP2;P2;SDS_P1;SDS_P2;PMS_P1;PMS_P2;Temp;Humidity;BMP_temperature;BMP_pressure;BME280_temperature;BME280_humidity;BME280_pressure;Samples;Min_cycle;Max_cycle;Signal;HPM_P1;HPM_P2
2022/05/16 00:00:06;;;;;;;;;;;;;;;20.84;52.49;92873.38;2055627;69;20057;-68
2022/05/16 00:02:37;;;;;;;;;;;;;;;21.07;50.85;92872.53;2067904;69;20058;-68
2022/05/16 00:05:03;;;;;;;;;;;;;;;21.09;52.16;92871.88;2055522;70;20050;-69
2022/05/16 00:07:28;;;;;;;;;;;;;;;21.18;50.53;92870.66;2055551;70;20055;-69
2022/05/16 00:09:54;;;;;;;;;;;;;;;21.24;51.68;92867.94;2055596;70;20057;-68
2022/05/16 00:15:48;;;;;;;;;;;;;;;21.21;50.96;92861.47;2054599;69;20151;-68
2022/05/16 00:18:14;;;;;;;;;;;;;;;21.08;51.52;92864.69;2055087;70;20141;-69
2022/05/16 00:20:39;;;;;;;;;;;;;;;21.14;51.28;92862.69;2055384;70;20050;-69
2022/05/16 00:23:05;;;;;;;;;;;;;;;21.23;50.51;92863.63;2068436;69;20066;-70
2022/05/16 00:25:30;;;;;;;;;;;;;;;21.19;51.21;92867.13;2055588;70;20479;-68
2022/05/16 00:27:56;;;;;;;;;;;;;;;20.75;51.50;92861.72;2055546;70;20054;-68
2022/05/16 00:30:21;;;;;;;;;;;;;;;21.00;50.90;92863.09;2055550;70;20054;-69
2022/05/16 00:32:50;;;;;;;;;;;;;;;20.80;52.70;92865.41;2054840;70;20057;-70
2022/05/16 00:35:17;;;;;;;;;;;;;;;20.84;52.43;92864.81;2055443;70;20137;-70
2022/05/16 00:37:42;;;;;;;;;;;;;;;20.85;53.10;92860.53;2055394;70;20156;-68
2022/05/16 00:40:09;;;;;;;;;;;;;;;20.86;52.56;92862.00;2055606;70;20042;-70
2022/05/16 00:42:35;;;;;;;;;;;;;;;20.79;53.43;92858.97;2055587;69;20062;-69
2022/05/16 00:45:01;;;;;;;;;;;;;;;20.66;53.69;92862.19;2055434;70;20050;-69
2022/05/16 00:47:26;;;;;;;;;;;;;;;20.61;54.05;92866.38;2055158;70;20513;-69
2022/05/16 00:53:21;;;;;;;;;;;;;;;20.76;52.03;92865.34;2055563;69;20479;-73
2022/05/16 00:59:14;;;;;;;;;;;;;;;20.62;52.17;92859.22;2055598;69;20483;-68
2022/05/16 01:07:09;;;;;;;;;;;;;;;20.56;53.12;92866.25;2055654;70;20575;-68
2022/05/16 01:09:34;;;;;;;;;;;;;;;20.48;53.58;92873.88;2055315;69;20050;-68
2022/05/16 01:12:00;;;;;;;;;;;;;;;20.43;54.15;92884.47;2055481;70;20508;-69
2022/05/16 01:18:02;;;;;;;;;;;;;;;20.35;54.67;92892.84;2053128;69;20096;-68
2022/05/16 01:20:35;;;;;;;;;;;;;;;20.46;53.84;92894.56;2068536;69;20447;-68
2022/05/16 01:26:30;;;;;;;;;;;;;;;20.28;54.54;92896.91;2055467;69;20046;-69
2022/05/16 01:28:56;;;;;;;;;;;;;;;20.14;54.74;92897.25;2055402;70;20054;-68
2022/05/16 01:31:21;;;;;;;;;;;;;;;20.15;55.72;92897.97;2055402;70;20053;-69
2022/05/16 01:33:47;;;;;;;;;;;;;;;20.29;54.52;92895.50;2055221;70;20560;-69
2022/05/16 01:36:12;;;;;;;;;;;;;;;20.25;54.50;92895.38;2068518;69;20074;-70
2022/05/16 01:38:39;;;;;;;;;;;;;;;20.22;55.29;92888.91;2068406;69;20080;-69
2022/05/16 01:41:07;;;;;;;;;;;;;;;20.18;54.71;92885.94;2055604;70;20470;-69
2022/05/16 01:47:01;;;;;;;;;;;;;;;20.11;55.06;92886.41;2055673;69;20057;-69
2022/05/16 01:52:56;;;;;;;;;;;;;;;20.11;55.19;92889.28;2055973;69;20138;-68
2022/05/16 01:55:22;;;;;;;;;;;;;;;19.89;55.70;92892.25;2069041;69;20066;-69
2022/05/16 01:57:47;;;;;;;;;;;;;;;20.22;52.17;92877.47;2055807;69;20056;-70
2022/05/16 02:00:14;;;;;;;;;;;;;;;19.88;55.29;92885.78;2068704;69;20157;-70
2022/05/16 02:02:41;;;;;;;;;;;;;;;19.91;53.98;92887.31;2055659;70;20072;-68
2022/05/16 02:05:07;;;;;;;;;;;;;;;19.93;53.82;92887.38;2068773;69;20136;-68
2022/05/16 02:07:33;;;;;;;;;;;;;;;20.09;52.83;92887.09;2055580;70;20073;-68
2022/05/16 02:09:58;;;;;;;;;;;;;;;20.03;54.42;92886.94;2068733;69;20055;-70
2022/05/16 02:12:24;;;;;;;;;;;;;;;20.13;53.68;92903.63;2055320;69;20478;-68
2022/05/16 02:14:49;;;;;;;;;;;;;;;20.07;53.81;92904.19;2068648;69;20470;-70
2022/05/16 02:17:14;;;;;;;;;;;;;;;20.00;54.62;92897.56;2055562;70;20478;-68
2022/05/16 02:19:40;;;;;;;;;;;;;;;19.97;54.27;92901.75;2068515;69;20482;-68
2022/05/16 02:24:50;;;;;;;;;;;;;;;20.16;53.40;92908.00;2055549;70;20153;-69
2022/05/16 02:27:19;;;;;;;;;;;;;;;20.21;51.29;92898.16;2055680;69;20490;-68
2022/05/16 02:29:45;;;;;;;;;;;;;;;20.21;53.56;92907.47;2055562;70;20062;-69
2022/05/16 02:32:11;;;;;;;;;;;;;;;20.30;50.58;92902.69;2055782;70;20054;-68
2022/05/16 02:34:37;;;;;;;;;;;;;;;20.10;53.97;92904.97;2055702;70;20051;-69
2022/05/16 02:37:03;;;;;;;;;;;;;;;20.03;53.81;92899.09;2055559;70;20135;-69
2022/05/16 02:39:29;;;;;;;;;;;;;;;20.08;53.73;92899.22;2055644;70;20510;-69
2022/05/16 02:41:54;;;;;;;;;;;;;;;20.12;53.67;92894.34;2056032;69;20051;-74
2022/05/16 02:44:21;;;;;;;;;;;;;;;19.98;54.92;92896.78;2068872;69;20050;-73
2022/05/16 02:46:46;;;;;;;;;;;;;;;20.04;53.83;92900.53;2055585;70;20096;-73
2022/05/16 02:49:12;;;;;;;;;;;;;;;19.99;54.45;92898.25;2055882;70;20162;-73
2022/05/16 02:51:38;;;;;;;;;;;;;;;19.89;55.01;92900.81;2055852;70;20058;-69
2022/05/16 02:54:03;;;;;;;;;;;;;;;19.87;55.04;92904.31;2055854;70;20506;-69
2022/05/16 02:56:29;;;;;;;;;;;;;;;19.87;54.89;92903.59;2065876;69;20062;-70
2022/05/16 02:58:54;;;;;;;;;;;;;;;19.94;54.20;92894.53;2055684;70;20394;-69
2022/05/16 03:01:20;;;;;;;;;;;;;;;19.78;55.37;92908.34;2055804;70;20065;-69
2022/05/16 03:03:46;;;;;;;;;;;;;;;19.67;56.09;92906.59;2055346;70;20097;-69
2022/05/16 03:06:12;;;;;;;;;;;;;;;19.65;55.32;92912.22;2055831;70;20051;-69
2022/05/16 03:08:38;;;;;;;;;;;;;;;19.49;56.45;92913.16;2055874;70;20092;-69
2022/05/16 03:11:04;;;;;;;;;;;;;;;19.41;56.34;92904.34;2055827;70;20505;-69
2022/05/16 03:13:29;;;;;;;;;;;;;;;19.40;56.52;92911.44;2056059;70;20124;-71
2022/05/16 03:15:55;;;;;;;;;;;;;;;19.32;57.10;92904.75;2055524;70;20054;-70
2022/05/16 03:18:22;;;;;;;;;;;;;;;19.45;55.93;92903.72;2055656;70;20054;-69
2022/05/16 03:20:49;;;;;;;;;;;;;;;19.35;56.77;92909.13;2055789;69;20060;-69
2022/05/16 03:23:14;;;;;;;;;;;;;;;19.38;56.42;92907.78;2055849;69;20090;-69
2022/05/16 03:25:39;;;;;;;;;;;;;;;19.23;57.10;92909.47;2055821;70;20521;-69
2022/05/16 03:28:06;;;;;;;;;;;;;;;19.22;56.67;92908.75;2068809;69;20143;-68
2022/05/16 03:30:31;;;;;;;;;;;;;;;19.20;56.46;92907.97;2055915;70;20043;-70
2022/05/16 03:32:57;;;;;;;;;;;;;;;19.17;56.80;92914.97;2055716;70;20051;-70
2022/05/16 03:35:23;;;;;;;;;;;;;;;18.91;58.01;92917.69;2055914;69;20068;-70
2022/05/16 03:37:48;;;;;;;;;;;;;;;19.14;56.09;92922.00;2055738;70;20134;-71
2022/05/16 03:42:58;;;;;;;;;;;;;;;18.90;57.50;92931.22;2055613;70;20141;-70
2022/05/16 03:45:24;;;;;;;;;;;;;;;18.96;56.63;92925.00;2055740;69;20465;-73
2022/05/16 03:47:49;;;;;;;;;;;;;;;18.80;57.88;92933.75;2055645;70;20362;-73
2022/05/16 03:50:15;;;;;;;;;;;;;;;18.81;56.59;92932.34;2068794;69;20061;-69
2022/05/16 03:56:08;;;;;;;;;;;;;;;18.88;56.88;92942.59;2055793;69;20180;-72
2022/05/16 03:58:34;;;;;;;;;;;;;;;18.84;56.75;92951.00;2055890;70;20161;-69
2022/05/16 04:00:59;;;;;;;;;;;;;;;18.76;57.21;92951.44;2055863;70;20409;-72
2022/05/16 04:03:26;;;;;;;;;;;;;;;18.72;58.25;92951.28;2055766;70;20050;-70
2022/05/16 04:05:51;;;;;;;;;;;;;;;18.62;58.76;92945.22;2055838;70;20472;-73
2022/05/16 04:08:17;;;;;;;;;;;;;;;18.77;57.49;92941.50;2055405;69;20153;-71
2022/05/16 04:14:10;;;;;;;;;;;;;;;18.65;58.27;92943.19;2055776;69;20081;-70
2022/05/16 04:16:37;;;;;;;;;;;;;;;18.68;57.61;92939.00;2068663;69;20094;-70
2022/05/16 04:19:03;;;;;;;;;;;;;;;18.60;58.27;92941.56;2055713;70;20161;-73
2022/05/16 04:21:29;;;;;;;;;;;;;;;18.75;55.60;92944.28;2055668;69;20141;-70
2022/05/16 04:23:54;;;;;;;;;;;;;;;18.56;56.88;92947.88;2055727;70;20465;-69
2022/05/16 04:26:19;;;;;;;;;;;;;;;18.52;58.35;92951.31;2055713;70;20057;-69
2022/05/16 04:32:14;;;;;;;;;;;;;;;18.46;57.34;92950.34;2055755;69;20424;-69
2022/05/16 04:34:40;;;;;;;;;;;;;;;18.45;58.34;92963.13;2055621;70;20094;-72
2022/05/16 04:37:05;;;;;;;;;;;;;;;18.51;58.15;92957.66;2055745;70;20151;-69
2022/05/16 04:39:31;;;;;;;;;;;;;;;18.39;58.67;92962.94;2055744;70;20094;-69
2022/05/16 04:44:40;;;;;;;;;;;;;;;18.44;58.71;92965.25;2055598;70;20510;-69
2022/05/16 04:47:07;;;;;;;;;;;;;;;18.35;58.51;92969.22;2055619;69;20108;-70
2022/05/16 04:49:33;;;;;;;;;;;;;;;18.24;58.70;92970.97;2055530;70;20139;-69
2022/05/16 04:51:58;;;;;;;;;;;;;;;18.41;58.23;92966.56;2055660;69;20050;-69
2022/05/16 04:54:24;;;;;;;;;;;;;;;18.50;54.62;92954.06;2056056;70;20047;-69
2022/05/16 04:56:51;;;;;;;;;;;;;;;18.28;58.87;92953.28;2055310;70;20058;-69
2022/05/16 04:59:17;;;;;;;;;;;;;;;18.31;57.98;92954.06;2068547;69;20058;-69
2022/05/16 05:01:42;;;;;;;;;;;;;;;18.46;57.80;92964.59;2055640;70;20054;-70
2022/05/16 05:04:08;;;;;;;;;;;;;;;18.39;58.44;92962.94;2055540;69;20117;-71
2022/05/16 05:06:33;;;;;;;;;;;;;;;18.42;57.80;92964.47;2055714;70;20111;-70
2022/05/16 05:08:59;;;;;;;;;;;;;;;18.44;57.14;92973.81;2055709;70;20124;-70
2022/05/16 05:16:52;;;;;;;;;;;;;;;18.23;58.06;92966.63;2068508;69;20425;-71
2022/05/16 05:19:18;;;;;;;;;;;;;;;18.43;57.49;92971.63;2055445;70;20478;-70
2022/05/16 05:21:43;;;;;;;;;;;;;;;18.65;55.79;92966.00;2055653;69;20055;-69
2022/05/16 05:24:09;;;;;;;;;;;;;;;18.65;57.15;92975.28;2055721;70;20046;-69
2022/05/16 05:26:34;;;;;;;;;;;;;;;18.54;57.39;92979.13;2055671;70;20061;-69
2022/05/16 05:29:00;;;;;;;;;;;;;;;18.20;57.77;92976.50;2055533;70;20062;-69
2022/05/16 05:31:25;;;;;;;;;;;;;;;18.34;58.03;92975.56;2055553;70;20142;-69
2022/05/16 05:33:55;;;;;;;;;;;;;;;18.45;58.04;92972.41;2068499;69;20410;-69
2022/05/16 05:36:21;;;;;;;;;;;;;;;18.56;57.19;92975.66;2068205;69;20069;-70
2022/05/16 05:38:51;;;;;;;;;;;;;;;18.53;57.95;92972.72;2065681;69;20414;-73
2022/05/16 05:41:17;;;;;;;;;;;;;;;18.12;58.70;92972.63;2055515;70;20134;-71
2022/05/16 05:43:42;;;;;;;;;;;;;;;18.17;58.22;92974.25;2055511;70;20145;-71
2022/05/16 05:46:08;;;;;;;;;;;;;;;18.46;57.72;92973.91;2055534;69;20062;-70
2022/05/16 05:48:33;;;;;;;;;;;;;;;18.49;56.74;92968.97;2065455;69;20176;-72
2022/05/16 05:50:59;;;;;;;;;;;;;;;18.60;56.98;92970.06;2068495;69;20151;-71
2022/05/16 05:53:24;;;;;;;;;;;;;;;18.57;56.91;92980.69;2055505;70;20215;-69
2022/05/16 05:55:50;;;;;;;;;;;;;;;18.63;57.44;92968.75;2055171;70;20046;-69
2022/05/16 05:58:16;;;;;;;;;;;;;;;18.64;57.64;92973.06;2055469;70;20058;-70
2022/05/16 06:00:42;;;;;;;;;;;;;;;18.67;56.79;92966.06;2055414;70;20052;-69
2022/05/16 06:03:08;;;;;;;;;;;;;;;18.68;57.43;92976.06;2055415;70;20050;-69
2022/05/16 06:05:34;;;;;;;;;;;;;;;18.76;58.36;92976.38;2055476;70;20053;-70
2022/05/16 06:07:59;;;;;;;;;;;;;;;18.86;56.70;92973.88;2055352;69;20053;-70
2022/05/16 06:10:25;;;;;;;;;;;;;;;18.82;57.21;92985.13;2055298;70;20050;-70
2022/05/16 06:12:51;;;;;;;;;;;;;;;18.87;57.94;92980.31;2055311;70;20504;-71
2022/05/16 06:15:17;;;;;;;;;;;;;;;18.83;58.65;92977.31;2055443;69;20050;-72
2022/05/16 06:17:43;;;;;;;;;;;;;;;19.05;56.26;92983.78;2055275;70;20050;-73
2022/05/16 06:20:10;;;;;;;;;;;;;;;18.99;57.72;92981.47;2055433;70;20046;-74
2022/05/16 06:22:36;;;;;;;;;;;;;;;19.24;55.39;92988.72;2055485;70;20107;-72
2022/05/16 06:27:46;;;;;;;;;;;;;;;19.26;56.26;92976.63;2055207;70;20058;-70
2022/05/16 06:30:12;;;;;;;;;;;;;;;19.34;53.59;92979.78;2055491;70;20058;-74
2022/05/16 06:32:37;;;;;;;;;;;;;;;19.42;55.53;92976.44;2055777;69;20418;-70
2022/05/16 06:35:03;;;;;;;;;;;;;;;19.61;55.18;92972.81;2055992;70;20147;-70
2022/05/16 06:37:28;;;;;;;;;;;;;;;19.77;54.92;92978.28;2055854;70;20195;-69
2022/05/16 06:39:54;;;;;;;;;;;;;;;19.97;53.06;92963.88;2068903;69;20046;-69
2022/05/16 06:42:19;;;;;;;;;;;;;;;20.12;51.93;92968.66;2055827;69;20070;-70
2022/05/16 06:44:44;;;;;;;;;;;;;;;20.26;52.47;92962.63;2055809;70;20062;-72
2022/05/16 06:47:10;;;;;;;;;;;;;;;20.30;51.12;92957.03;2055973;69;20111;-71
2022/05/16 06:49:36;;;;;;;;;;;;;;;20.38;51.93;92957.22;2055840;69;20043;-74
2022/05/16 06:52:01;;;;;;;;;;;;;;;20.37;51.91;92957.91;2068891;69;20579;-71
2022/05/16 06:54:26;;;;;;;;;;;;;;;20.49;51.31;92961.88;2055856;70;20134;-75
2022/05/16 07:00:21;;;;;;;;;;;;;;;20.88;51.73;92962.19;2055805;69;20053;-73
2022/05/16 07:02:46;;;;;;;;;;;;;;;21.01;50.04;92967.56;2068608;69;20046;-73
2022/05/16 07:05:12;;;;;;;;;;;;;;;21.19;49.92;92964.44;2055844;70;20086;-73
2022/05/16 07:07:38;;;;;;;;;;;;;;;21.33;49.34;92969.84;2055763;70;20080;-75
2022/05/16 07:10:04;;;;;;;;;;;;;;;21.45;48.82;92967.28;2055736;70;20493;-75
2022/05/16 07:12:30;;;;;;;;;;;;;;;21.42;48.07;92967.91;2055614;70;20549;-74
2022/05/16 07:14:55;;;;;;;;;;;;;;;21.63;47.88;92960.53;2055882;70;20165;-75
2022/05/16 07:17:21;;;;;;;;;;;;;;;21.49;48.22;92969.53;2055748;69;20063;-71
2022/05/16 07:19:49;;;;;;;;;;;;;;;21.42;48.35;92973.63;2068709;69;20120;-71
2022/05/16 07:22:16;;;;;;;;;;;;;;;21.67;47.96;92975.69;2055788;69;20043;-71
2022/05/16 07:24:43;;;;;;;;;;;;;;;21.85;47.26;92971.78;2055705;69;20115;-70
2022/05/16 07:29:53;;;;;;;;;;;;;;;22.12;49.36;92973.84;2055842;70;20058;-71
2022/05/16 07:32:19;;;;;;;;;;;;;;;22.17;49.38;92971.81;2055810;70;20119;-70
2022/05/16 07:34:45;;;;;;;;;;;;;;;22.16;48.80;92978.97;2055705;70;20478;-70
2022/05/16 07:37:10;;;;;;;;;;;;;;;22.20;48.01;92981.91;2055866;70;20050;-73
2022/05/16 07:39:36;;;;;;;;;;;;;;;22.06;47.81;92991.63;2055908;70;20077;-72
2022/05/16 07:42:07;;;;;;;;;;;;;;;21.77;48.80;92987.38;2068286;69;20058;-74
2022/05/16 07:44:33;;;;;;;;;;;;;;;21.49;48.75;92992.44;2055646;70;20509;-75
2022/05/16 07:46:59;;;;;;;;;;;;;;;21.49;48.81;93003.88;2055761;70;20054;-74
2022/05/16 07:49:25;;;;;;;;;;;;;;;21.19;51.10;92998.06;2068620;69;20594;-73
2022/05/16 07:51:51;;;;;;;;;;;;;;;21.43;49.81;92995.84;2055825;69;20499;-72
2022/05/16 07:54:16;;;;;;;;;;;;;;;21.74;51.17;93000.19;2055865;70;20054;-71
2022/05/16 07:56:42;;;;;;;;;;;;;;;21.78;50.22;93006.03;2055735;70;20437;-72
2022/05/16 07:59:09;;;;;;;;;;;;;;;21.84;52.08;93002.56;2055877;70;20055;-72
2022/05/16 08:01:35;;;;;;;;;;;;;;;21.95;51.39;93003.56;2055755;70;20058;-71
2022/05/16 08:04:01;;;;;;;;;;;;;;;22.00;53.18;93008.69;2055516;70;20062;-71
2022/05/16 08:06:27;;;;;;;;;;;;;;;21.76;52.42;93017.44;2055947;69;20404;-70
2022/05/16 08:11:40;;;;;;;;;;;;;;;22.12;50.74;93016.13;2055761;70;20100;-70
2022/05/16 08:14:05;;;;;;;;;;;;;;;22.37;50.27;93008.81;2055350;70;20054;-72
2022/05/16 08:16:31;;;;;;;;;;;;;;;22.34;49.73;93022.38;2068572;69;20042;-70
2022/05/16 08:18:56;;;;;;;;;;;;;;;22.40;49.39;93025.38;2055521;70;20470;-70
2022/05/16 08:21:22;;;;;;;;;;;;;;;21.99;51.60;93026.56;2068714;69;20065;-71
2022/05/16 08:23:48;;;;;;;;;;;;;;;22.25;50.46;93027.19;2055698;70;20046;-71
2022/05/16 08:26:13;;;;;;;;;;;;;;;22.16;50.66;93028.44;2055718;69;20501;-70
2022/05/16 08:28:39;;;;;;;;;;;;;;;22.36;49.79;93028.16;2055709;70;20095;-72
2022/05/16 08:31:04;;;;;;;;;;;;;;;22.14;50.68;93042.00;2055818;69;20421;-70
2022/05/16 08:33:30;;;;;;;;;;;;;;;21.91;51.98;93032.84;2068589;69;20513;-70
2022/05/16 08:41:27;;;;;;;;;;;;;;;21.77;51.28;93047.56;2055806;70;20131;-75
2022/05/16 08:43:55;;;;;;;;;;;;;;;21.87;50.41;93049.22;2068624;69;20077;-72
2022/05/16 08:46:31;;;;;;;;;;;;;;;21.90;50.67;93057.19;2055671;70;20490;-72
2022/05/16 08:49:16;;;;;;;;;;;;;;;21.93;50.97;93049.34;2055599;70;20482;-70
2022/05/16 08:51:43;;;;;;;;;;;;;;;22.10;51.20;93062.66;2055761;69;20145;-78
2022/05/16 08:54:12;;;;;;;;;;;;;;;21.78;50.75;93060.47;2055652;70;20416;-75
2022/05/16 08:56:41;;;;;;;;;;;;;;;21.91;50.32;93055.06;2068858;69;20094;-79
2022/05/16 08:59:18;;;;;;;;;;;;;;;21.92;50.92;93062.22;2055893;70;20057;-74
2022/05/16 09:01:44;;;;;;;;;;;;;;;22.18;49.84;93065.03;2055801;70;20074;-71
2022/05/16 09:04:12;;;;;;;;;;;;;;;21.72;52.26;93074.66;2055492;69;20115;-71
2022/05/16 09:06:40;;;;;;;;;;;;;;;21.89;50.95;93072.19;2055658;70;20056;-71
2022/05/16 09:09:16;;;;;;;;;;;;;;;22.24;50.70;93065.91;2055409;70;20046;-73
2022/05/16 09:12:00;;;;;;;;;;;;;;;22.33;50.42;93073.28;2055736;69;20062;-78
2022/05/16 09:14:30;;;;;;;;;;;;;;;22.31;50.39;93067.50;2055645;69;20042;-80
2022/05/16 09:17:15;;;;;;;;;;;;;;;22.56;50.33;93077.38;2068733;69;20100;-72
2022/05/16 09:19:53;;;;;;;;;;;;;;;22.62;49.30;93076.78;2055579;69;20062;-75
2022/05/16 09:26:06;;;;;;;;;;;;;;;22.60;49.22;93076.75;2055786;69;20046;-73
2022/05/16 09:32:05;;;;;;;;;;;;;;;22.61;50.04;93094.69;2055736;69;20045;-78
2022/05/16 09:34:32;;;;;;;;;;;;;;;22.17;53.12;93097.97;2055497;70;20050;-75
2022/05/16 09:36:57;;;;;;;;;;;;;;;22.14;53.97;93110.81;2055484;70;20391;-79
2022/05/16 09:39:31;;;;;;;;;;;;;;;22.01;52.84;93124.81;2055302;70;20505;-78
2022/05/16 09:42:04;;;;;;;;;;;;;;;21.66;52.44;93131.78;2055682;70;20513;-80
2022/05/16 09:44:50;;;;;;;;;;;;;;;21.91;53.26;93141.75;2055623;70;20501;-78
2022/05/16 09:47:15;;;;;;;;;;;;;;;21.84;55.31;93151.59;2055811;69;20141;-79
2022/05/16 09:49:41;;;;;;;;;;;;;;;21.92;53.94;93163.28;2055532;70;20145;-77
2022/05/16 09:52:14;;;;;;;;;;;;;;;22.02;53.16;93166.41;2055611;70;20047;-75
2022/05/16 09:54:39;;;;;;;;;;;;;;;21.90;56.00;93173.94;2068656;69;20069;-72
2022/05/16 09:57:05;;;;;;;;;;;;;;;21.87;56.42;93181.78;2055475;69;20080;-70
2022/05/16 09:59:35;;;;;;;;;;;;;;;21.98;55.34;93171.28;2055492;69;20055;-70
2022/05/16 10:02:27;;;;;;;;;;;;;;;21.41;57.67;93173.38;2055465;70;20050;-70
2022/05/16 10:04:56;;;;;;;;;;;;;;;21.80;56.15;93175.13;2055542;69;20062;-71
2022/05/16 10:07:40;;;;;;;;;;;;;;;21.88;54.72;93185.38;2068966;69;20133;-71
2022/05/16 10:10:06;;;;;;;;;;;;;;;21.87;57.81;93184.63;2055886;70;20145;-69
2022/05/16 10:12:31;;;;;;;;;;;;;;;22.02;55.37;93177.84;2055605;70;20231;-70
2022/05/16 10:14:59;;;;;;;;;;;;;;;22.11;57.25;93192.41;2055783;70;20046;-70
2022/05/16 10:17:31;;;;;;;;;;;;;;;21.96;54.04;93185.59;2055637;70;20073;-73
2022/05/16 10:20:03;;;;;;;;;;;;;;;21.92;53.39;93186.19;2055616;69;20054;-73
2022/05/16 10:22:30;;;;;;;;;;;;;;;21.99;52.99;93187.84;2055804;69;20055;-73
2022/05/16 10:24:56;;;;;;;;;;;;;;;21.86;52.99;93180.31;2056042;70;20491;-73
2022/05/16 10:27:24;;;;;;;;;;;;;;;21.71;55.07;93182.06;2056049;70;20051;-72
2022/05/16 10:33:26;;;;;;;;;;;;;;;21.89;54.84;93169.63;2055928;70;20508;-72
2022/05/16 10:35:58;;;;;;;;;;;;;;;21.85;56.35;93170.25;2056030;69;20120;-76
2022/05/16 10:38:24;;;;;;;;;;;;;;;22.16;54.70;93162.47;2056031;70;20221;-75
2022/05/16 10:40:54;;;;;;;;;;;;;;;22.20;55.56;93165.44;2055948;69;20141;-78
2022/05/16 10:43:31;;;;;;;;;;;;;;;22.45;54.57;93161.75;2055908;70;20050;-75
2022/05/16 10:46:09;;;;;;;;;;;;;;;22.83;53.51;93158.31;2055996;70;20571;-76
2022/05/16 10:48:41;;;;;;;;;;;;;;;23.10;54.43;93165.41;2068790;69;20054;-76
2022/05/16 10:51:15;;;;;;;;;;;;;;;22.93;53.21;93158.56;2055963;70;20054;-77
2022/05/16 10:53:56;;;;;;;;;;;;;;;21.83;57.52;93153.72;2068958;69;20055;-74
2022/05/16 10:56:22;;;;;;;;;;;;;;;21.42;59.23;93146.19;2055861;69;20146;-76
2022/05/16 11:02:34;;;;;;;;;;;;;;;21.40;60.00;93136.81;2055921;69;20421;-71
2022/05/16 11:05:15;;;;;;;;;;;;;;;21.12;61.89;93139.56;2055971;70;20482;-72
2022/05/16 11:07:40;;;;;;;;;;;;;;;20.80;62.08;93131.50;2055864;69;20074;-72
2022/05/16 11:10:15;;;;;;;;;;;;;;;21.12;60.36;93131.75;2055896;70;20653;-71
2022/05/16 11:13:00;;;;;;;;;;;;;;;21.83;56.22;93127.94;2055949;70;20482;-72
2022/05/16 11:15:38;;;;;;;;;;;;;;;20.89;60.53;93124.63;2055827;70;20097;-71
2022/05/16 11:18:13;;;;;;;;;;;;;;;20.71;61.36;93126.94;2055585;70;20470;-71
2022/05/16 11:20:44;;;;;;;;;;;;;;;20.85;61.55;93133.09;2055237;70;20054;-71
2022/05/16 11:23:18;;;;;;;;;;;;;;;21.47;59.23;93124.13;2055622;69;20070;-72
2022/05/16 11:25:47;;;;;;;;;;;;;;;21.44;58.16;93119.72;2055646;70;20438;-73
2022/05/16 11:28:12;;;;;;;;;;;;;;;20.60;60.55;93128.75;2055380;70;20058;-72
2022/05/16 11:30:47;;;;;;;;;;;;;;;20.83;60.32;93120.84;2055766;70;20463;-74
2022/05/16 11:33:28;;;;;;;;;;;;;;;21.29;57.24;93121.44;2055799;69;20444;-72
2022/05/16 11:35:57;;;;;;;;;;;;;;;21.43;56.85;93119.00;2055575;69;20070;-70
2022/05/16 11:38:28;;;;;;;;;;;;;;;22.02;55.71;93125.53;2055742;69;20112;-70
2022/05/16 11:41:12;;;;;;;;;;;;;;;23.70;49.96;93122.09;2055676;69;20109;-71
2022/05/16 11:43:46;;;;;;;;;;;;;;;23.57;50.58;93126.13;2055623;69;20123;-72
2022/05/16 11:46:13;;;;;;;;;;;;;;;29.07;37.81;93130.38;2065941;69;20490;-71
2022/05/16 11:48:50;;;;;;;;;;;;;;;28.46;36.51;93126.78;2055598;70;20116;-72
2022/05/16 11:51:35;;;;;;;;;;;;;;;27.15;40.26;93126.31;2055765;70;20057;-71
2022/05/16 11:54:02;;;;;;;;;;;;;;;29.37;38.30;93129.56;2055817;69;20478;-71
2022/05/16 12:02:12;;;;;;;;;;;;;;;26.83;39.55;93109.50;2055639;70;20050;-72
2022/05/16 12:04:41;;;;;;;;;;;;;;;26.98;39.24;93105.25;2055575;69;20058;-72
2022/05/16 12:07:13;;;;;;;;;;;;;;;27.16;39.72;93103.94;2068688;69;20047;-71
2022/05/16 12:10:11;;;;;;;;;;;;;;;26.45;39.90;93101.31;2055563;69;20486;-71
2022/05/16 12:12:41;;;;;;;;;;;;;;;27.63;37.79;93096.19;2054280;69;20538;-73
2022/05/16 12:15:15;;;;;;;;;;;;;;;26.03;39.88;93082.91;2057762;69;20053;-72
2022/05/16 12:17:50;;;;;;;;;;;;;;;25.78;40.50;93081.19;2057502;69;20469;-72
2022/05/16 12:20:15;;;;;;;;;;;;;;;27.26;36.58;93078.72;2057803;69;20088;-70
2022/05/16 12:22:42;;;;;;;;;;;;;;;27.73;36.51;93083.94;2054886;69;20145;-73
2022/05/16 12:25:10;;;;;;;;;;;;;;;26.74;37.64;93079.13;2057721;69;20050;-73
2022/05/16 12:27:45;;;;;;;;;;;;;;;27.08;36.20;93076.47;2057765;69;20058;-72
2022/05/16 12:30:29;;;;;;;;;;;;;;;27.49;35.51;93070.09;2057777;69;20057;-71
2022/05/16 12:32:55;;;;;;;;;;;;;;;27.38;36.16;93062.84;2057731;69;20069;-72
2022/05/16 12:35:27;;;;;;;;;;;;;;;26.88;36.74;93069.81;2057647;69;20054;-73
2022/05/16 12:37:53;;;;;;;;;;;;;;;26.19;36.95;93067.88;2057574;69;20199;-72
2022/05/16 12:40:21;;;;;;;;;;;;;;;26.06;37.33;93057.66;2057395;69;20058;-72
2022/05/16 12:46:44;;;;;;;;;;;;;;;24.84;40.79;93057.03;2057510;69;20115;-73
2022/05/16 12:49:11;;;;;;;;;;;;;;;25.97;39.03;93059.75;2061636;69;20521;-71
2022/05/16 12:51:52;;;;;;;;;;;;;;;24.61;41.09;93058.88;2068731;69;20417;-72
2022/05/16 12:54:24;;;;;;;;;;;;;;;25.10;40.61;93060.25;2055616;70;20053;-73
2022/05/16 12:56:53;;;;;;;;;;;;;;;25.25;41.22;93057.56;2055308;70;20066;-73
2022/05/16 13:03:02;;;;;;;;;;;;;;;26.37;39.08;93064.41;2055463;69;20160;-74
2022/05/16 13:05:46;;;;;;;;;;;;;;;26.63;38.06;93058.13;2055522;70;20046;-73
2022/05/16 13:08:12;;;;;;;;;;;;;;;26.70;38.54;93053.81;2055321;70;20119;-71
2022/05/16 13:10:37;;;;;;;;;;;;;;;27.02;38.51;93046.78;2055323;70;20066;-73
2022/05/16 13:13:03;;;;;;;;;;;;;;;27.09;38.76;93040.34;2055431;69;20119;-72
2022/05/16 13:15:28;;;;;;;;;;;;;;;27.27;38.22;93036.81;2055364;70;20046;-72
2022/05/16 13:17:57;;;;;;;;;;;;;;;26.28;38.53;93036.91;2055200;70;20517;-72
2022/05/16 13:20:26;;;;;;;;;;;;;;;26.21;37.86;93038.31;2055500;70;20429;-75
2022/05/16 13:22:54;;;;;;;;;;;;;;;26.31;39.00;93030.47;2055354;69;20050;-74
2022/05/16 13:25:21;;;;;;;;;;;;;;;26.58;38.44;93028.50;2055309;70;20046;-74
2022/05/16 13:30:42;;;;;;;;;;;;;;;26.58;38.11;93022.72;2059439;69;20441;-73
2022/05/16 13:33:21;;;;;;;;;;;;;;;27.19;37.04;93015.81;2055115;70;20082;-73
2022/05/16 13:35:46;;;;;;;;;;;;;;;27.23;37.03;93015.84;2055467;70;20629;-74
2022/05/16 13:38:12;;;;;;;;;;;;;;;26.60;36.53;93019.13;2055416;69;20165;-73
2022/05/16 13:40:42;;;;;;;;;;;;;;;26.42;37.58;93013.22;2068271;69;20047;-73
2022/05/16 13:43:14;;;;;;;;;;;;;;;26.89;37.31;93005.53;2055353;70;20065;-74
2022/05/16 13:45:40;;;;;;;;;;;;;;;26.04;38.27;93006.47;2055367;70;20082;-74
2022/05/16 13:48:10;;;;;;;;;;;;;;;25.85;38.87;92996.94;2055372;70;20120;-72
2022/05/16 13:50:37;;;;;;;;;;;;;;;25.68;39.14;92995.31;2055465;70;20054;-73
2022/05/16 13:53:03;;;;;;;;;;;;;;;25.69;39.08;92988.09;2055394;70;20054;-72
2022/05/16 13:55:30;;;;;;;;;;;;;;;25.70;38.50;92991.72;2055423;70;20072;-72
2022/05/16 13:57:56;;;;;;;;;;;;;;;25.20;39.17;92986.91;2055385;70;20057;-74
2022/05/16 14:00:25;;;;;;;;;;;;;;;25.66;38.19;92983.78;2055188;70;20046;-72
2022/05/16 14:02:53;;;;;;;;;;;;;;;25.53;38.27;92982.94;2055224;70;20050;-72
2022/05/16 14:05:30;;;;;;;;;;;;;;;25.24;39.57;92981.19;2055330;70;20043;-71
2022/05/16 14:07:57;;;;;;;;;;;;;;;25.21;39.82;92971.81;2068394;69;20058;-73
2022/05/16 14:10:24;;;;;;;;;;;;;;;25.14;40.17;92973.16;2055368;70;20612;-73
2022/05/16 14:16:20;;;;;;;;;;;;;;;24.41;42.05;92975.13;2055420;69;20053;-70
2022/05/16 14:18:50;;;;;;;;;;;;;;;24.34;42.90;92972.16;2055309;70;20058;-70
2022/05/16 14:21:23;;;;;;;;;;;;;;;23.82;43.36;92969.97;2055382;70;20518;-68
2022/05/16 14:23:58;;;;;;;;;;;;;;;23.54;43.71;92970.19;2055457;70;20486;-71
2022/05/16 14:26:23;;;;;;;;;;;;;;;23.60;43.10;92963.81;2055599;70;20050;-72
2022/05/16 14:28:51;;;;;;;;;;;;;;;23.24;43.20;92978.28;2055289;70;20511;-72
2022/05/16 14:31:22;;;;;;;;;;;;;;;22.98;44.25;92982.13;2055247;70;20130;-69
2022/05/16 14:33:52;;;;;;;;;;;;;;;23.66;42.25;92974.72;2055174;69;20136;-71
2022/05/16 14:36:44;;;;;;;;;;;;;;;23.16;42.32;92969.50;2055254;70;20061;-72